sensor_id;sensor_type;location;lat;lon;timestamp;temperature;humidity
52301;DHT22;38528;53.214;6.562;2022-09-23T00:00:44;13.00;99.90
52301;DHT22;38528;53.214;6.562;2022-09-23T00:03:11;13.00;99.90
52301;DHT22;38528;53.214;6.562;2022-09-23T00:05:37;13.00;99.90
52301;DHT22;38528;53.214;6.562;2022-09-23T00:08:06;12.90;99.90
52301;DHT22;38528;53.214;6.562;2022-09-23T00:10:36;12.90;99.90
52301;DHT22;38528;53.214;6.562;2022-09-23T00:13:02;12.90;99.90
52301;DHT22;38528;53.214;6.562;2022-09-23T00:15:28;13.00;99.90
52301;DHT22;38528;53.214;6.562;2022-09-23T00:17:56;13.60;99.90
52301;DHT22;38528;53.214;6.562;2022-09-23T00:20:22;12.80;99.90
52301;DHT22;38528;53.214;6.562;2022-09-23T00:22:47;12.80;99.90
52301;DHT22;38528;53.214;6.562;2022-09-23T00:25:13;12.80;99.90
52301;DHT22;38528;53.214;6.562;2022-09-23T00:27:40;12.70;99.90
52301;DHT22;38528;53.214;6.562;2022-09-23T00:30:08;12.70;99.90
52301;DHT22;38528;53.214;6.562;2022-09-23T00:32:35;12.70;99.90
52301;DHT22;38528;53.214;6.562;2022-09-23T00:35:02;12.70;99.90
52301;DHT22;38528;53.214;6.562;2022-09-23T00:37:29;12.70;99.90
52301;DHT22;38528;53.214;6.562;2022-09-23T00:39:55;12.70;99.90
52301;DHT22;38528;53.214;6.562;2022-09-23T00:42:23;12.80;99.90
52301;DHT22;38528;53.214;6.562;2022-09-23T00:44:51;12.60;99.90
52301;DHT22;38528;53.214;6.562;2022-09-23T00:47:42;12.60;99.90
52301;DHT22;38528;53.214;6.562;2022-09-23T00:52:35;12.70;99.90
52301;DHT22;38528;53.214;6.562;2022-09-23T00:55:06;12.70;99.90
52301;DHT22;38528;53.214;6.562;2022-09-23T00:57:34;12.60;99.90
52301;DHT22;38528;53.214;6.562;2022-09-23T01:00:03;12.80;99.90
52301;DHT22;38528;53.214;6.562;2022-09-23T01:02:29;12.60;99.90
52301;DHT22;38528;53.214;6.562;2022-09-23T01:04:55;12.60;99.90
52301;DHT22;38528;53.214;6.562;2022-09-23T01:07:22;12.60;99.90
52301;DHT22;38528;53.214;6.562;2022-09-23T01:09:48;12.50;99.90
52301;DHT22;38528;53.214;6.562;2022-09-23T01:15:30;12.50;99.90
52301;DHT22;38528;53.214;6.562;2022-09-23T01:18:06;12.50;99.90
52301;DHT22;38528;53.214;6.562;2022-09-23T01:34:35;12.30;99.90
52301;DHT22;38528;53.214;6.562;2022-09-23T01:42:40;12.30;99.90
52301;DHT22;38528;53.214;6.562;2022-09-23T01:45:09;12.30;99.90
52301;DHT22;38528;53.214;6.562;2022-09-23T01:47:49;12.30;99.90
52301;DHT22;38528;53.214;6.562;2022-09-23T01:50:18;12.30;99.90
52301;DHT22;38528;53.214;6.562;2022-09-23T01:53:09;12.40;99.90
52301;DHT22;38528;53.214;6.562;2022-09-23T01:55:40;12.30;99.90
52301;DHT22;38528;53.214;6.562;2022-09-23T01:58:27;12.30;99.90
52301;DHT22;38528;53.214;6.562;2022-09-23T02:00:59;12.20;99.90
52301;DHT22;38528;53.214;6.562;2022-09-23T02:03:52;12.20;99.90
52301;DHT22;38528;53.214;6.562;2022-09-23T02:06:22;12.30;99.90
52301;DHT22;38528;53.214;6.562;2022-09-23T02:09:08;12.30;99.90
52301;DHT22;38528;53.214;6.562;2022-09-23T02:11:35;12.40;99.90
52301;DHT22;38528;53.214;6.562;2022-09-23T02:14:03;12.30;99.90
52301;DHT22;38528;53.214;6.562;2022-09-23T02:16:49;12.30;99.90
52301;DHT22;38528;53.214;6.562;2022-09-23T02:19:33;12.30;99.90
52301;DHT22;38528;53.214;6.562;2022-09-23T02:22:12;12.30;99.90
52301;DHT22;38528;53.214;6.562;2022-09-23T02:24:39;12.20;99.90
52301;DHT22;38528;53.214;6.562;2022-09-23T02:27:15;12.90;99.90
52301;DHT22;38528;53.214;6.562;2022-09-23T02:29:53;12.10;99.90
52301;DHT22;38528;53.214;6.562;2022-09-23T02:32:47;12.00;99.90
52301;DHT22;38528;53.214;6.562;2022-09-23T02:35:24;12.00;99.90
52301;DHT22;38528;53.214;6.562;2022-09-23T02:45:48;12.00;99.90
52301;DHT22;38528;53.214;6.562;2022-09-23T02:48:23;12.00;99.90
52301;DHT22;38528;53.214;6.562;2022-09-23T02:50:51;12.00;99.90
52301;DHT22;38528;53.214;6.562;2022-09-23T02:53:17;11.90;99.90
52301;DHT22;38528;53.214;6.562;2022-09-23T02:55:43;12.00;99.90
52301;DHT22;38528;53.214;6.562;2022-09-23T02:58:11;11.90;99.90
52301;DHT22;38528;53.214;6.562;2022-09-23T03:01:00;12.00;99.90
52301;DHT22;38528;53.214;6.562;2022-09-23T03:04:01;11.90;99.90
52301;DHT22;38528;53.214;6.562;2022-09-23T03:09:21;11.80;99.90
52301;DHT22;38528;53.214;6.562;2022-09-23T03:11:54;11.70;99.90
52301;DHT22;38528;53.214;6.562;2022-09-23T03:14:49;11.70;99.90
52301;DHT22;38528;53.214;6.562;2022-09-23T03:17:34;11.70;99.90
52301;DHT22;38528;53.214;6.562;2022-09-23T03:20:09;11.70;99.90
52301;DHT22;38528;53.214;6.562;2022-09-23T03:22:44;11.70;99.90
52301;DHT22;38528;53.214;6.562;2022-09-23T03:25:14;11.60;99.90
52301;DHT22;38528;53.214;6.562;2022-09-23T03:27:42;11.60;99.90
52301;DHT22;38528;53.214;6.562;2022-09-23T03:30:09;11.60;99.90
52301;DHT22;38528;53.214;6.562;2022-09-23T03:32:35;11.60;99.90
52301;DHT22;38528;53.214;6.562;2022-09-23T03:35:04;11.60;99.90
52301;DHT22;38528;53.214;6.562;2022-09-23T03:37:57;11.60;99.90
52301;DHT22;38528;53.214;6.562;2022-09-23T03:40:29;11.60;99.90
52301;DHT22;38528;53.214;6.562;2022-09-23T03:42:57;11.50;99.90
52301;DHT22;38528;53.214;6.562;2022-09-23T03:45:34;11.60;99.90
52301;DHT22;38528;53.214;6.562;2022-09-23T03:48:01;11.40;99.90
52301;DHT22;38528;53.214;6.562;2022-09-23T03:50:27;11.50;99.90
52301;DHT22;38528;53.214;6.562;2022-09-23T03:52:53;11.40;99.90
52301;DHT22;38528;53.214;6.562;2022-09-23T03:55:19;11.80;99.90
52301;DHT22;38528;53.214;6.562;2022-09-23T03:57:45;11.40;99.90
52301;DHT22;38528;53.214;6.562;2022-09-23T04:00:13;11.40;99.90
52301;DHT22;38528;53.214;6.562;2022-09-23T04:02:39;11.40;99.90
52301;DHT22;38528;53.214;6.562;2022-09-23T04:05:06;11.40;99.90
52301;DHT22;38528;53.214;6.562;2022-09-23T04:07:32;11.40;99.90
52301;DHT22;38528;53.214;6.562;2022-09-23T04:09:57;11.40;99.90
52301;DHT22;38528;53.214;6.562;2022-09-23T04:12:23;11.70;99.90
52301;DHT22;38528;53.214;6.562;2022-09-23T04:14:49;11.70;99.90
52301;DHT22;38528;53.214;6.562;2022-09-23T04:17:14;11.40;99.90
52301;DHT22;38528;53.214;6.562;2022-09-23T04:19:40;11.80;99.90
52301;DHT22;38528;53.214;6.562;2022-09-23T04:22:07;11.40;99.90
52301;DHT22;38528;53.214;6.562;2022-09-23T04:24:33;11.30;99.90
52301;DHT22;38528;53.214;6.562;2022-09-23T04:26:59;11.30;99.90
52301;DHT22;38528;53.214;6.562;2022-09-23T04:29:24;11.30;99.90
52301;DHT22;38528;53.214;6.562;2022-09-23T04:31:51;11.30;99.90
52301;DHT22;38528;53.214;6.562;2022-09-23T04:34:17;11.30;99.90
52301;DHT22;38528;53.214;6.562;2022-09-23T04:36:44;11.20;99.90
52301;DHT22;38528;53.214;6.562;2022-09-23T04:39:10;11.30;99.90
52301;DHT22;38528;53.214;6.562;2022-09-23T04:41:36;11.20;99.90
52301;DHT22;38528;53.214;6.562;2022-09-23T04:44:03;11.20;99.90
52301;DHT22;38528;53.214;6.562;2022-09-23T04:46:30;11.20;99.90
52301;DHT22;38528;53.214;6.562;2022-09-23T04:48:56;11.20;99.90
52301;DHT22;38528;53.214;6.562;2022-09-23T04:51:23;11.20;99.90
52301;DHT22;38528;53.214;6.562;2022-09-23T04:53:51;11.30;99.90
52301;DHT22;38528;53.214;6.562;2022-09-23T04:56:28;12.50;99.90
52301;DHT22;38528;53.214;6.562;2022-09-23T04:58:56;11.90;99.90
52301;DHT22;38528;53.214;6.562;2022-09-23T05:01:24;11.20;99.90
52301;DHT22;38528;53.214;6.562;2022-09-23T05:03:52;11.10;99.90
52301;DHT22;38528;53.214;6.562;2022-09-23T05:06:19;11.70;99.90
52301;DHT22;38528;53.214;6.562;2022-09-23T05:08:50;11.20;99.90
52301;DHT22;38528;53.214;6.562;2022-09-23T05:11:16;11.20;99.90
52301;DHT22;38528;53.214;6.562;2022-09-23T05:13:43;11.30;99.90
52301;DHT22;38528;53.214;6.562;2022-09-23T05:16:10;11.20;99.90
52301;DHT22;38528;53.214;6.562;2022-09-23T05:18:38;11.10;99.90
52301;DHT22;38528;53.214;6.562;2022-09-23T05:21:06;11.10;99.90
52301;DHT22;38528;53.214;6.562;2022-09-23T05:23:31;11.60;99.90
52301;DHT22;38528;53.214;6.562;2022-09-23T05:26:00;11.10;99.90
52301;DHT22;38528;53.214;6.562;2022-09-23T05:28:27;11.10;99.90
52301;DHT22;38528;53.214;6.562;2022-09-23T05:31:18;11.20;99.90
52301;DHT22;38528;53.214;6.562;2022-09-23T05:33:46;11.10;99.90
52301;DHT22;38528;53.214;6.562;2022-09-23T05:36:13;11.10;99.90
52301;DHT22;38528;53.214;6.562;2022-09-23T05:38:39;11.10;99.90
52301;DHT22;38528;53.214;6.562;2022-09-23T05:41:07;11.10;99.90
52301;DHT22;38528;53.214;6.562;2022-09-23T05:43:33;11.10;99.90
52301;DHT22;38528;53.214;6.562;2022-09-23T05:46:06;11.10;99.90
52301;DHT22;38528;53.214;6.562;2022-09-23T05:48:33;11.10;99.90
52301;DHT22;38528;53.214;6.562;2022-09-23T05:51:00;11.10;99.90
52301;DHT22;38528;53.214;6.562;2022-09-23T05:53:29;11.10;99.90
52301;DHT22;38528;53.214;6.562;2022-09-23T05:55:56;11.10;99.90
52301;DHT22;38528;53.214;6.562;2022-09-23T05:58:22;11.10;99.90
52301;DHT22;38528;53.214;6.562;2022-09-23T06:00:49;11.00;99.90
52301;DHT22;38528;53.214;6.562;2022-09-23T06:03:17;11.10;99.90
52301;DHT22;38528;53.214;6.562;2022-09-23T06:05:43;11.00;99.90
52301;DHT22;38528;53.214;6.562;2022-09-23T06:08:09;11.10;99.90
52301;DHT22;38528;53.214;6.562;2022-09-23T06:10:39;11.10;99.90
52301;DHT22;38528;53.214;6.562;2022-09-23T06:13:06;11.10;99.90
52301;DHT22;38528;53.214;6.562;2022-09-23T06:15:33;11.20;99.90
52301;DHT22;38528;53.214;6.562;2022-09-23T06:17:59;11.20;99.90
52301;DHT22;38528;53.214;6.562;2022-09-23T06:20:25;11.20;99.90
52301;DHT22;38528;53.214;6.562;2022-09-23T06:22:51;11.30;99.90
52301;DHT22;38528;53.214;6.562;2022-09-23T06:25:17;11.60;99.90
52301;DHT22;38528;53.214;6.562;2022-09-23T06:27:51;12.20;99.90
52301;DHT22;38528;53.214;6.562;2022-09-23T06:30:18;11.60;99.90
52301;DHT22;38528;53.214;6.562;2022-09-23T06:32:52;11.40;99.90
52301;DHT22;38528;53.214;6.562;2022-09-23T06:35:19;11.40;99.90
52301;DHT22;38528;53.214;6.562;2022-09-23T06:37:46;11.40;99.90
52301;DHT22;38528;53.214;6.562;2022-09-23T06:40:12;11.50;99.90
52301;DHT22;38528;53.214;6.562;2022-09-23T06:42:39;11.50;99.90
52301;DHT22;38528;53.214;6.562;2022-09-23T06:45:06;11.60;99.90
52301;DHT22;38528;53.214;6.562;2022-09-23T06:47:32;11.60;99.90
52301;DHT22;38528;53.214;6.562;2022-09-23T06:49:57;11.70;99.90
52301;DHT22;38528;53.214;6.562;2022-09-23T06:52:23;11.90;99.90
52301;DHT22;38528;53.214;6.562;2022-09-23T06:54:49;12.10;99.90
52301;DHT22;38528;53.214;6.562;2022-09-23T06:57:15;12.50;99.90
52301;DHT22;38528;53.214;6.562;2022-09-23T06:59:40;12.80;99.90
52301;DHT22;38528;53.214;6.562;2022-09-23T07:02:10;13.00;99.90
52301;DHT22;38528;53.214;6.562;2022-09-23T07:04:37;13.10;99.90
52301;DHT22;38528;53.214;6.562;2022-09-23T07:07:03;13.10;99.90
52301;DHT22;38528;53.214;6.562;2022-09-23T07:09:28;13.10;99.90
52301;DHT22;38528;53.214;6.562;2022-09-23T07:11:54;13.10;99.90
52301;DHT22;38528;53.214;6.562;2022-09-23T07:14:20;12.90;99.90
52301;DHT22;38528;53.214;6.562;2022-09-23T07:16:49;12.80;99.90
52301;DHT22;38528;53.214;6.562;2022-09-23T07:19:15;13.00;99.90
52301;DHT22;38528;53.214;6.562;2022-09-23T07:21:41;12.60;99.90
52301;DHT22;38528;53.214;6.562;2022-09-23T07:24:06;12.60;99.90
52301;DHT22;38528;53.214;6.562;2022-09-23T07:26:32;12.60;99.90
52301;DHT22;38528;53.214;6.562;2022-09-23T07:29:00;12.50;99.90
52301;DHT22;38528;53.214;6.562;2022-09-23T07:31:33;12.60;99.90
52301;DHT22;38528;53.214;6.562;2022-09-23T07:33:59;12.60;99.90
52301;DHT22;38528;53.214;6.562;2022-09-23T07:36:26;12.70;99.90
52301;DHT22;38528;53.214;6.562;2022-09-23T07:38:53;12.60;99.90
52301;DHT22;38528;53.214;6.562;2022-09-23T07:41:26;12.50;99.90
52301;DHT22;38528;53.214;6.562;2022-09-23T07:43:53;12.60;99.90
52301;DHT22;38528;53.214;6.562;2022-09-23T07:46:23;12.80;99.90
52301;DHT22;38528;53.214;6.562;2022-09-23T07:48:49;12.60;99.90
52301;DHT22;38528;53.214;6.562;2022-09-23T07:51:25;12.70;99.90
52301;DHT22;38528;53.214;6.562;2022-09-23T07:53:52;12.70;99.90
52301;DHT22;38528;53.214;6.562;2022-09-23T07:56:19;12.80;99.90
52301;DHT22;38528;53.214;6.562;2022-09-23T07:58:46;12.90;99.90
52301;DHT22;38528;53.214;6.562;2022-09-23T08:01:25;12.90;99.90
52301;DHT22;38528;53.214;6.562;2022-09-23T08:03:52;12.90;99.90
52301;DHT22;38528;53.214;6.562;2022-09-23T08:06:17;12.90;99.90
52301;DHT22;38528;53.214;6.562;2022-09-23T08:08:43;13.00;99.90
52301;DHT22;38528;53.214;6.562;2022-09-23T08:11:12;13.00;99.90
52301;DHT22;38528;53.214;6.562;2022-09-23T08:13:39;13.10;99.90
52301;DHT22;38528;53.214;6.562;2022-09-23T08:16:05;13.10;99.90
52301;DHT22;38528;53.214;6.562;2022-09-23T08:18:31;13.20;99.90
52301;DHT22;38528;53.214;6.562;2022-09-23T08:20:57;13.20;99.90
52301;DHT22;38528;53.214;6.562;2022-09-23T08:23:23;13.30;99.90
52301;DHT22;38528;53.214;6.562;2022-09-23T08:25:56;13.30;99.90
52301;DHT22;38528;53.214;6.562;2022-09-23T08:28:26;13.40;99.90
52301;DHT22;38528;53.214;6.562;2022-09-23T08:30:52;13.40;99.90
52301;DHT22;38528;53.214;6.562;2022-09-23T08:33:18;13.50;99.90
52301;DHT22;38528;53.214;6.562;2022-09-23T08:35:44;13.50;99.90
52301;DHT22;38528;53.214;6.562;2022-09-23T08:38:09;13.60;99.90
52301;DHT22;38528;53.214;6.562;2022-09-23T08:40:38;13.60;99.90
52301;DHT22;38528;53.214;6.562;2022-09-23T08:43:05;13.70;99.90
52301;DHT22;38528;53.214;6.562;2022-09-23T08:45:33;13.80;99.90
52301;DHT22;38528;53.214;6.562;2022-09-23T08:48:21;13.90;99.90
52301;DHT22;38528;53.214;6.562;2022-09-23T08:50:52;14.00;99.90
52301;DHT22;38528;53.214;6.562;2022-09-23T08:53:33;14.20;99.90
52301;DHT22;38528;53.214;6.562;2022-09-23T08:56:04;14.30;99.90
52301;DHT22;38528;53.214;6.562;2022-09-23T08:58:45;14.40;99.90
52301;DHT22;38528;53.214;6.562;2022-09-23T09:04:03;14.40;99.90
52301;DHT22;38528;53.214;6.562;2022-09-23T09:06:40;14.40;99.90
52301;DHT22;38528;53.214;6.562;2022-09-23T09:09:20;14.50;99.90
52301;DHT22;38528;53.214;6.562;2022-09-23T09:11:49;14.50;99.90
52301;DHT22;38528;53.214;6.562;2022-09-23T09:14:42;14.50;99.90
52301;DHT22;38528;53.214;6.562;2022-09-23T09:22:21;14.60;99.90
52301;DHT22;38528;53.214;6.562;2022-09-23T09:24:49;14.70;99.90
52301;DHT22;38528;53.214;6.562;2022-09-23T09:27:19;14.70;99.90
52301;DHT22;38528;53.214;6.562;2022-09-23T09:29:47;14.70;99.90
52301;DHT22;38528;53.214;6.562;2022-09-23T09:34:55;14.70;99.90
52301;DHT22;38528;53.214;6.562;2022-09-23T09:37:42;14.70;99.90
52301;DHT22;38528;53.214;6.562;2022-09-23T09:40:12;14.70;99.90
52301;DHT22;38528;53.214;6.562;2022-09-23T09:42:40;14.70;99.90
52301;DHT22;38528;53.214;6.562;2022-09-23T09:48:07;14.70;99.90
52301;DHT22;38528;53.214;6.562;2022-09-23T09:50:42;14.80;99.90
52301;DHT22;38528;53.214;6.562;2022-09-23T09:53:24;14.80;99.90
52301;DHT22;38528;53.214;6.562;2022-09-23T09:55:57;14.90;99.90
52301;DHT22;38528;53.214;6.562;2022-09-23T09:58:26;14.90;99.90
52301;DHT22;38528;53.214;6.562;2022-09-23T10:00:52;14.90;99.90
52301;DHT22;38528;53.214;6.562;2022-09-23T10:03:32;14.90;99.90
52301;DHT22;38528;53.214;6.562;2022-09-23T10:05:58;14.90;99.90
52301;DHT22;38528;53.214;6.562;2022-09-23T10:08:33;14.90;99.90
52301;DHT22;38528;53.214;6.562;2022-09-23T10:11:05;15.00;99.90
52301;DHT22;38528;53.214;6.562;2022-09-23T10:13:35;15.00;99.90
52301;DHT22;38528;53.214;6.562;2022-09-23T10:16:03;15.00;99.90
52301;DHT22;38528;53.214;6.562;2022-09-23T10:18:37;15.00;99.90
52301;DHT22;38528;53.214;6.562;2022-09-23T10:21:15;15.10;99.90
52301;DHT22;38528;53.214;6.562;2022-09-23T10:23:43;15.20;99.90
52301;DHT22;38528;53.214;6.562;2022-09-23T10:26:10;15.10;99.90
52301;DHT22;38528;53.214;6.562;2022-09-23T10:28:41;15.20;99.90
52301;DHT22;38528;53.214;6.562;2022-09-23T10:31:10;15.20;99.90
52301;DHT22;38528;53.214;6.562;2022-09-23T10:36:40;15.20;99.90
52301;DHT22;38528;53.214;6.562;2022-09-23T10:39:09;15.20;99.90
52301;DHT22;38528;53.214;6.562;2022-09-23T10:42:08;15.30;99.90
52301;DHT22;38528;53.214;6.562;2022-09-23T10:45:17;15.30;99.90
52301;DHT22;38528;53.214;6.562;2022-09-23T10:48:21;15.40;99.90
52301;DHT22;38528;53.214;6.562;2022-09-23T10:50:54;15.40;99.90
52301;DHT22;38528;53.214;6.562;2022-09-23T10:56:38;15.50;99.90
52301;DHT22;38528;53.214;6.562;2022-09-23T11:02:08;15.50;99.90
52301;DHT22;38528;53.214;6.562;2022-09-23T11:07:39;15.70;99.90
52301;DHT22;38528;53.214;6.562;2022-09-23T11:13:00;15.80;99.90
52301;DHT22;38528;53.214;6.562;2022-09-23T11:16:12;15.90;99.90
52301;DHT22;38528;53.214;6.562;2022-09-23T11:30:09;16.20;99.90
52301;DHT22;38528;53.214;6.562;2022-09-23T11:35:33;16.10;99.90
52301;DHT22;38528;53.214;6.562;2022-09-23T11:38:14;16.20;99.90
52301;DHT22;38528;53.214;6.562;2022-09-23T11:40:44;16.10;99.90
52301;DHT22;38528;53.214;6.562;2022-09-23T11:43:24;16.10;99.90
52301;DHT22;38528;53.214;6.562;2022-09-23T11:46:05;16.10;99.90
52301;DHT22;38528;53.214;6.562;2022-09-23T11:49:07;16.10;99.90
52301;DHT22;38528;53.214;6.562;2022-09-23T11:54:54;16.00;99.90
52301;DHT22;38528;53.214;6.562;2022-09-23T11:57:48;16.00;99.90
52301;DHT22;38528;53.214;6.562;2022-09-23T12:00:16;16.10;99.90
52301;DHT22;38528;53.214;6.562;2022-09-23T12:05:21;16.10;99.90
52301;DHT22;38528;53.214;6.562;2022-09-23T12:07:53;16.10;99.90
52301;DHT22;38528;53.214;6.562;2022-09-23T12:10:24;16.10;99.90
52301;DHT22;38528;53.214;6.562;2022-09-23T12:13:14;16.10;99.90
52301;DHT22;38528;53.214;6.562;2022-09-23T12:16:02;16.10;99.90
52301;DHT22;38528;53.214;6.562;2022-09-23T12:18:55;16.10;99.90
52301;DHT22;38528;53.214;6.562;2022-09-23T12:21:37;16.10;99.90
52301;DHT22;38528;53.214;6.562;2022-09-23T12:24:53;16.20;99.90
52301;DHT22;38528;53.214;6.562;2022-09-23T12:27:00;16.20;99.90
52301;DHT22;38528;53.214;6.562;2022-09-23T12:29:29;16.20;99.90
52301;DHT22;38528;53.214;6.562;2022-09-23T12:31:57;16.20;99.90
52301;DHT22;38528;53.214;6.562;2022-09-23T12:34:42;16.20;99.90
52301;DHT22;38528;53.214;6.562;2022-09-23T12:37:22;16.30;99.90
52301;DHT22;38528;53.214;6.562;2022-09-23T12:39:48;16.30;99.90
52301;DHT22;38528;53.214;6.562;2022-09-23T12:42:17;16.30;99.90
52301;DHT22;38528;53.214;6.562;2022-09-23T12:44:45;16.40;99.90
52301;DHT22;38528;53.214;6.562;2022-09-23T12:49:46;16.50;99.90
52301;DHT22;38528;53.214;6.562;2022-09-23T12:54:42;16.60;99.90
52301;DHT22;38528;53.214;6.562;2022-09-23T12:57:12;16.60;99.90
52301;DHT22;38528;53.214;6.562;2022-09-23T13:02:33;16.70;99.90
52301;DHT22;38528;53.214;6.562;2022-09-23T13:05:16;16.70;99.90
52301;DHT22;38528;53.214;6.562;2022-09-23T13:08:08;16.70;99.90
52301;DHT22;38528;53.214;6.562;2022-09-23T13:10:47;16.70;99.90
52301;DHT22;38528;53.214;6.562;2022-09-23T13:13:38;16.60;99.90
52301;DHT22;38528;53.214;6.562;2022-09-23T13:16:18;16.50;99.90
52301;DHT22;38528;53.214;6.562;2022-09-23T13:18:52;16.60;99.90
52301;DHT22;38528;53.214;6.562;2022-09-23T13:27:23;16.60;99.90
52301;DHT22;38528;53.214;6.562;2022-09-23T13:32:35;16.50;99.90
52301;DHT22;38528;53.214;6.562;2022-09-23T13:37:42;16.40;99.90
52301;DHT22;38528;53.214;6.562;2022-09-23T13:40:26;16.40;99.90
52301;DHT22;38528;53.214;6.562;2022-09-23T13:43:04;16.40;99.90
52301;DHT22;38528;53.214;6.562;2022-09-23T13:45:30;16.50;99.90
52301;DHT22;38528;53.214;6.562;2022-09-23T13:48:05;16.60;99.90
52301;DHT22;38528;53.214;6.562;2022-09-23T13:50:34;16.30;99.90
52301;DHT22;38528;53.214;6.562;2022-09-23T13:53:07;16.30;99.90
52301;DHT22;38528;53.214;6.562;2022-09-23T13:55:36;16.30;99.90
52301;DHT22;38528;53.214;6.562;2022-09-23T13:58:21;16.20;99.90
52301;DHT22;38528;53.214;6.562;2022-09-23T14:00:48;16.20;99.90
52301;DHT22;38528;53.214;6.562;2022-09-23T14:03:33;16.10;99.90
52301;DHT22;38528;53.214;6.562;2022-09-23T14:06:01;16.00;99.90
52301;DHT22;38528;53.214;6.562;2022-09-23T14:08:29;16.00;99.90
52301;DHT22;38528;53.214;6.562;2022-09-23T14:10:59;16.00;99.90
52301;DHT22;38528;53.214;6.562;2022-09-23T14:13:28;15.90;99.90
52301;DHT22;38528;53.214;6.562;2022-09-23T14:15:56;15.90;99.90
52301;DHT22;38528;53.214;6.562;2022-09-23T14:18:38;15.90;99.90
52301;DHT22;38528;53.214;6.562;2022-09-23T14:21:08;15.90;99.90
52301;DHT22;38528;53.214;6.562;2022-09-23T14:23:50;15.80;99.90
52301;DHT22;38528;53.214;6.562;2022-09-23T14:26:16;15.70;99.90
52301;DHT22;38528;53.214;6.562;2022-09-23T14:28:42;16.10;99.90
52301;DHT22;38528;53.214;6.562;2022-09-23T14:31:07;15.70;99.90
52301;DHT22;38528;53.214;6.562;2022-09-23T14:33:39;15.70;99.90
52301;DHT22;38528;53.214;6.562;2022-09-23T14:36:07;15.70;99.90
52301;DHT22;38528;53.214;6.562;2022-09-23T14:39:06;15.70;99.90
52301;DHT22;38528;53.214;6.562;2022-09-23T14:41:37;15.70;99.90
52301;DHT22;38528;53.214;6.562;2022-09-23T14:44:05;15.60;99.90
52301;DHT22;38528;53.214;6.562;2022-09-23T14:46:33;15.60;99.90
52301;DHT22;38528;53.214;6.562;2022-09-23T14:49:20;15.60;99.90
52301;DHT22;38528;53.214;6.562;2022-09-23T14:51:56;15.60;99.90
52301;DHT22;38528;53.214;6.562;2022-09-23T14:55:02;15.50;99.90
52301;DHT22;38528;53.214;6.562;2022-09-23T15:00:07;15.40;99.90
52301;DHT22;38528;53.214;6.562;2022-09-23T15:02:42;15.40;99.90
52301;DHT22;38528;53.214;6.562;2022-09-23T15:05:17;15.40;99.90
52301;DHT22;38528;53.214;6.562;2022-09-23T15:07:49;15.40;99.90
52301;DHT22;38528;53.214;6.562;2022-09-23T15:10:22;15.40;99.90
52301;DHT22;38528;53.214;6.562;2022-09-23T15:12:48;15.40;99.90
52301;DHT22;38528;53.214;6.562;2022-09-23T15:15:16;15.40;99.90
52301;DHT22;38528;53.214;6.562;2022-09-23T15:17:43;15.30;99.90
52301;DHT22;38528;53.214;6.562;2022-09-23T15:22:46;15.20;99.90
52301;DHT22;38528;53.214;6.562;2022-09-23T15:25:38;15.20;99.90
52301;DHT22;38528;53.214;6.562;2022-09-23T15:30:36;15.10;99.90
52301;DHT22;38528;53.214;6.562;2022-09-23T15:33:04;15.10;99.90
52301;DHT22;38528;53.214;6.562;2022-09-23T15:35:30;15.10;99.90
52301;DHT22;38528;53.214;6.562;2022-09-23T15:37:58;15.10;99.90
52301;DHT22;38528;53.214;6.562;2022-09-23T15:40:28;15.10;99.90
52301;DHT22;38528;53.214;6.562;2022-09-23T15:42:56;15.20;99.90
52301;DHT22;38528;53.214;6.562;2022-09-23T15:45:34;15.10;99.90
52301;DHT22;38528;53.214;6.562;2022-09-23T15:48:06;15.10;99.90
52301;DHT22;38528;53.214;6.562;2022-09-23T15:50:35;15.10;99.90
52301;DHT22;38528;53.214;6.562;2022-09-23T15:53:02;15.00;99.90
52301;DHT22;38528;53.214;6.562;2022-09-23T15:55:28;15.10;99.90
52301;DHT22;38528;53.214;6.562;2022-09-23T15:57:54;15.30;99.90
52301;DHT22;38528;53.214;6.562;2022-09-23T16:00:19;15.10;99.90
52301;DHT22;38528;53.214;6.562;2022-09-23T16:02:47;15.10;99.90
52301;DHT22;38528;53.214;6.562;2022-09-23T16:05:22;15.10;99.90
52301;DHT22;38528;53.214;6.562;2022-09-23T16:07:49;15.10;99.90
52301;DHT22;38528;53.214;6.562;2022-09-23T16:10:18;15.10;99.90
52301;DHT22;38528;53.214;6.562;2022-09-23T16:12:45;15.20;99.90
52301;DHT22;38528;53.214;6.562;2022-09-23T16:15:17;15.20;99.90
52301;DHT22;38528;53.214;6.562;2022-09-23T16:17:43;15.20;99.90
52301;DHT22;38528;53.214;6.562;2022-09-23T16:20:10;15.30;99.90
52301;DHT22;38528;53.214;6.562;2022-09-23T16:22:36;15.20;99.90
52301;DHT22;38528;53.214;6.562;2022-09-23T16:25:03;15.20;99.90
52301;DHT22;38528;53.214;6.562;2022-09-23T16:27:30;15.20;99.90
52301;DHT22;38528;53.214;6.562;2022-09-23T16:29:55;15.20;99.90
52301;DHT22;38528;53.214;6.562;2022-09-23T16:32:21;15.20;99.90
52301;DHT22;38528;53.214;6.562;2022-09-23T16:34:48;15.20;99.90
52301;DHT22;38528;53.214;6.562;2022-09-23T16:37:14;15.20;99.90
52301;DHT22;38528;53.214;6.562;2022-09-23T16:39:41;15.20;99.90
52301;DHT22;38528;53.214;6.562;2022-09-23T16:42:06;15.20;99.90
52301;DHT22;38528;53.214;6.562;2022-09-23T16:44:32;15.20;99.90
52301;DHT22;38528;53.214;6.562;2022-09-23T16:46:58;15.20;99.90
52301;DHT22;38528;53.214;6.562;2022-09-23T16:49:24;15.20;99.90
52301;DHT22;38528;53.214;6.562;2022-09-23T16:51:50;15.10;99.90
52301;DHT22;38528;53.214;6.562;2022-09-23T16:54:15;15.10;99.90
52301;DHT22;38528;53.214;6.562;2022-09-23T16:56:42;15.10;99.90
52301;DHT22;38528;53.214;6.562;2022-09-23T16:59:10;15.10;99.90
52301;DHT22;38528;53.214;6.562;2022-09-23T17:01:37;15.10;99.90
52301;DHT22;38528;53.214;6.562;2022-09-23T17:04:21;15.10;99.90
52301;DHT22;38528;53.214;6.562;2022-09-23T17:06:51;15.10;99.90
52301;DHT22;38528;53.214;6.562;2022-09-23T17:09:19;15.10;99.90
52301;DHT22;38528;53.214;6.562;2022-09-23T17:11:51;15.10;99.90
52301;DHT22;38528;53.214;6.562;2022-09-23T17:14:17;15.10;99.90
52301;DHT22;38528;53.214;6.562;2022-09-23T17:16:43;15.10;99.90
52301;DHT22;38528;53.214;6.562;2022-09-23T17:19:10;15.10;99.90
52301;DHT22;38528;53.214;6.562;2022-09-23T17:21:36;15.40;99.90
52301;DHT22;38528;53.214;6.562;2022-09-23T17:24:02;15.00;99.90
52301;DHT22;38528;53.214;6.562;2022-09-23T17:26:29;15.10;99.90
52301;DHT22;38528;53.214;6.562;2022-09-23T17:28:56;15.00;99.90
52301;DHT22;38528;53.214;6.562;2022-09-23T17:31:24;15.10;99.90
52301;DHT22;38528;53.214;6.562;2022-09-23T17:33:51;15.00;99.90
52301;DHT22;38528;53.214;6.562;2022-09-23T17:36:18;15.00;99.90
52301;DHT22;38528;53.214;6.562;2022-09-23T17:38:46;15.10;99.90
52301;DHT22;38528;53.214;6.562;2022-09-23T17:41:12;15.00;99.90
52301;DHT22;38528;53.214;6.562;2022-09-23T17:43:41;15.00;99.90
52301;DHT22;38528;53.214;6.562;2022-09-23T17:46:10;15.00;99.90